Latest Coastal Weather Observations for Rundle Island

IDQ60701

Issued at 5:45 am EST Sunday 26 October 2014 (issued every 10 minutes, with the page automatically refreshed every 10 minutes)

About coastal observations | Map of coastal stations | Coastal observations for QLD | Marine services | Other Formats
Station Details ID: 039322 Name: RUNDLE ISLAND Lat: -23.53 Lon: 151.28 Height: 19.8 m
Data from the previous 72 hours. | See also: Recent months at Rundle Island
Date/Time
EST
Temp

°C
Wind Pressure Rain
since 9am
mm
Weather Cloud Vis
km
Sea
Height
m
Swell
Dir
 
Speed
knots
Gust
knots
hPa Trend Height
m
Period
s
Dir
26/05:30am 22.0 N 9 10 1017.8 - - - - - - - - -
26/05:00am 22.1 N 8 9 1017.6 - - - - - - - - -
26/04:30am 22.0 N 9 11 1017.2 - - - - - - - - -
26/04:00am 22.0 N 9 11 1016.9 - - - - - - - - -
26/03:30am 21.9 N 9 11 1016.8 - - - - - - - - -
26/03:00am 21.9 N 9 11 1016.8 - - - - - - - - -
26/02:30am 21.9 N 9 11 1016.7 - - - - - - - - -
26/02:00am 22.1 N 11 13 1016.7 - - - - - - - - -
26/01:30am 22.1 N 11 13 1016.9 - - - - - - - - -
26/01:00am 22.2 N 11 12 1017.3 - - - - - - - - -
26/12:30am 22.2 N 11 13 1017.6 - - - - - - - - -
26/12:00am 22.1 NNE 12 13 1017.9 - - - - - - - - -
 
Date/Time
EST
Temp

°C
Wind Pressure Rain
since 9am
mm
Weather Cloud Vis
km
Sea
Height
m
Swell
Dir
 
Speed
knots
Gust
knots
hPa Trend Height
m
Period
s
Dir
25/11:30pm 22.2 NNE 13 15 1018.0 - - - - - - - - -
25/11:00pm 22.3 NNE 12 15 1018.5 - - - - - - - - -
25/10:30pm 22.3 NNE 11 14 1018.8 - - - - - - - - -
25/10:00pm 22.4 NNE 12 14 1018.9 - - - - - - - - -
25/09:30pm 22.4 NNE 12 14 1019.0 - - - - - - - - -
25/09:00pm 22.4 NNE 13 15 1018.8 - - - - - - - - -
25/08:30pm 22.5 NNE 12 14 1018.6 - - - - - - - - -
25/08:00pm 22.6 NE 13 15 1018.5 - - - - - - - - -
25/07:30pm 22.5 NE 12 14 1018.3 - - - - - - - - -
25/07:00pm 22.6 NE 13 15 1018.0 - - - - - - - - -
25/06:30pm 22.5 NE 12 14 1017.7 - - - - - - - - -
25/06:00pm 22.6 NE 12 14 1017.5 - - - - - - - - -
25/05:30pm 22.7 NNE 11 13 1017.3 - - - - - - - - -
25/05:00pm 22.9 NNE 10 12 1017.2 - - - - - - - - -
25/04:30pm 23.4 NNE 9 11 1017.1 - - - - - - - - -
25/04:00pm 23.2 NE 9 11 1017.1 - - - - - - - - -
25/03:30pm 23.2 NE 9 10 1017.2 - - - - - - - - -
25/03:00pm 23.3 NE 8 10 1017.3 - - - - - - - - -
25/02:30pm 23.7 ENE 9 10 1017.4 - - - - - - - - -
25/02:00pm 23.8 ENE 7 9 1017.9 - - - - - - - - -
25/01:30pm 24.4 ENE 7 9 1018.2 - - - - - - - - -
25/01:00pm 24.3 ENE 7 8 1018.7 - - - - - - - - -
25/12:30pm 24.2 ENE 6 8 1019.3 - - - - - - - - -
25/12:00pm 24.2 ENE 6 7 1019.7 - - - - - - - - -
25/11:30am 24.2 ENE 5 6 1020.2 - - - - - - - - -
25/11:00am 24.2 ENE 5 7 1020.6 - - - - - - - - -
25/10:30am 24.8 ENE 3 5 1021.1 - - - - - - - - -
25/10:00am 26.2 E 2 4 1021.6 - - - - - - - - -
25/09:30am 25.5 E 3 5 1021.6 - - - - - - - - -
25/09:00am 25.5 E 3 5 1021.7 - - - - - - - - -
25/08:30am 24.6 ENE 4 5 1021.7 - - - - - - - - -
25/08:00am 23.8 ENE 3 4 1021.5 - - - - - - - - -
25/07:30am 23.2 NNE 2 4 1021.3 - - - - - - - - -
25/07:00am 22.5 NNE 3 5 1021.0 - - - - - - - - -
25/06:30am 22.4 ENE 6 7 1020.4 - - - - - - - - -
25/06:00am 21.9 NE 6 7 1019.9 - - - - - - - - -
25/05:30am 21.7 NE 7 8 1019.7 - - - - - - - - -
25/05:00am 21.6 NE 7 9 1019.4 - - - - - - - - -
25/04:30am 21.5 ENE 7 9 1019.3 - - - - - - - - -
25/04:00am 21.6 NE 7 9 1019.4 - - - - - - - - -
25/03:30am 21.5 ENE 7 10 1019.3 - - - - - - - - -
25/03:00am 21.7 ENE 9 11 1019.2 - - - - - - - - -
25/02:30am 21.7 ENE 8 9 1019.3 - - - - - - - - -
25/02:00am 21.6 ENE 8 9 1019.5 - - - - - - - - -
25/01:30am 21.7 ENE 9 11 1019.8 - - - - - - - - -
25/01:00am 21.8 ENE 9 10 1020.2 - - - - - - - - -
25/12:30am 21.8 E 8 9 1020.5 - - - - - - - - -
25/12:00am 21.8 E 9 11 1020.8 - - - - - - - - -
 
Date/Time
EST
Temp

°C
Wind Pressure Rain
since 9am
mm
Weather Cloud Vis
km
Sea
Height
m
Swell
Dir
 
Speed
knots
Gust
knots
hPa Trend Height
m
Period
s
Dir
24/11:30pm 22.0 E 9 11 1021.0 - - - - - - - - -
24/11:00pm 21.8 E 9 10 1021.2 - - - - - - - - -
24/10:30pm 21.9 E 10 12 1021.5 - - - - - - - - -
24/10:00pm 21.9 E 10 12 1021.6 - - - - - - - - -
24/09:30pm 21.9 E 11 13 1021.4 - - - - - - - - -
24/09:00pm 21.9 E 12 14 1021.1 - - - - - - - - -
24/08:30pm 21.9 E 12 14 1020.9 - - - - - - - - -
24/08:00pm 21.9 E 13 15 1020.5 - - - - - - - - -
24/07:30pm 21.9 ESE 15 16 1020.2 - - - - - - - - -
24/07:00pm 21.9 E 14 16 1019.9 - - - - - - - - -
24/06:30pm 21.9 E 13 15 1019.6 - - - - - - - - -
24/06:00pm 21.9 E 12 15 1019.3 - - - - - - - - -
24/05:30pm 22.1 E 12 15 1019.1 - - - - - - - - -
24/05:00pm 22.1 E 12 14 1019.0 - - - - - - - - -
24/04:30pm 22.2 E 13 15 1018.9 - - - - - - - - -
24/04:00pm 22.3 E 13 15 1018.8 - - - - - - - - -
24/03:30pm 22.4 E 14 15 1018.7 - - - - - - - - -
24/03:00pm 22.6 E 10 12 1019.4 - - - - - - - - -
24/02:30pm 22.6 E 9 11 1019.7 - - - - - - - - -
24/02:00pm 22.9 E 9 10 1020.1 - - - - - - - - -
24/01:30pm 23.1 E 7 9 1020.4 - - - - - - - - -
24/01:00pm 23.2 E 7 9 1020.7 - - - - - - - - -
24/12:30pm 23.4 ESE 7 10 1021.0 - - - - - - - - -
24/12:00pm 23.0 ESE 8 10 1021.3 - - - - - - - - -
24/11:30am 23.5 ESE 7 10 1021.4 - - - - - - - - -
24/11:00am 23.1 ESE 7 9 1021.7 - - - - - - - - -
24/10:30am 22.7 ESE 8 9 1021.7 - - - - - - - - -
24/10:00am 23.4 ESE 8 9 1021.7 - - - - - - - - -
24/09:30am 22.7 ESE 7 10 1021.9 - - - - - - - - -
24/09:00am 23.1 ESE 7 9 1021.7 - - - - - - - - -
24/08:30am 23.2 ESE 7 9 1021.6 - - - - - - - - -
24/08:00am 23.2 ESE 7 8 1021.3 - - - - - - - - -
24/07:30am 22.7 ESE 6 7 1021.1 - - - - - - - - -
24/07:00am 23.5 E 5 6 1021.0 - - - - - - - - -
24/06:30am 22.3 ESE 6 8 1020.8 - - - - - - - - -
24/06:00am 21.4 ESE 6 7 1020.5 - - - - - - - - -
24/05:30am 21.1 ESE 6 8 1020.3 - - - - - - - - -
24/05:00am 20.9 ESE 6 8 1019.8 - - - - - - - - -
24/04:30am 20.9 ESE 5 8 1019.4 - - - - - - - - -
24/04:00am 21.0 E 6 8 1019.4 - - - - - - - - -
24/03:30am 21.0 ESE 6 7 1019.1 - - - - - - - - -
24/03:00am 21.1 E 7 9 1019.3 - - - - - - - - -
24/02:30am 21.2 E 7 9 1019.3 - - - - - - - - -
24/02:00am 21.2 ESE 6 7 1019.7 - - - - - - - - -
24/01:30am 21.2 E 7 9 1020.0 - - - - - - - - -
24/01:00am 21.4 E 7 10 1020.3 - - - - - - - - -
24/12:30am 21.4 ENE 7 9 1020.7 - - - - - - - - -
24/12:00am 21.5 E 8 9 1021.0 - - - - - - - - -
 
Date/Time
EST
Temp

°C
Wind Pressure Rain
since 9am
mm
Weather Cloud Vis
km
Sea
Height
m
Swell
Dir
 
Speed
knots
Gust
knots
hPa Trend Height
m
Period
s
Dir
23/11:30pm 21.6 E 7 8 1021.0 - - - - - - - - -
23/11:00pm 21.6 ENE 7 9 1020.9 - - - - - - - - -
23/10:30pm 21.7 E 8 10 1020.9 - - - - - - - - -
23/10:00pm 21.6 E 8 10 1020.9 - - - - - - - - -
23/09:30pm 21.8 E 8 10 1020.9 - - - - - - - - -
23/09:00pm 21.8 E 10 12 1020.5 - - - - - - - - -
23/08:30pm 21.8 E 10 12 1020.3 - - - - - - - - -
23/08:00pm 21.7 E 9 12 1020.1 - - - - - - - - -
23/07:30pm 21.7 E 10 12 1019.6 - - - - - - - - -
23/07:00pm 21.6 E 12 14 1019.1 - - - - - - - - -
23/06:30pm 21.8 E 14 17 1018.7 - - - - - - - - -
23/06:00pm 21.9 E 16 18 1018.4 - - - - - - - - -
23/05:30pm 21.9 E 16 18 1018.1 - - - - - - - - -
23/05:00pm 21.9 E 16 18 1018.0 - - - - - - - - -
23/04:30pm 22.0 E 16 19 1017.7 - - - - - - - - -
23/04:00pm 22.0 E 16 19 1017.3 - - - - - - - - -
23/03:30pm 22.1 E 17 19 1017.3 - - - - - - - - -
23/03:00pm 22.0 E 16 18 1017.6 - - - - - - - - -
23/02:30pm 22.0 E 16 18 1018.0 - - - - - - - - -
23/02:00pm 22.2 E 14 17 1018.2 - - - - - - - - -
23/01:30pm 22.3 E 13 15 1018.5 - - - - - - - - -
23/01:00pm 22.3 E 12 14 1019.0 - - - - - - - - -
23/12:30pm 22.8 ESE 11 14 1019.2 - - - - - - - - -
23/12:00pm 21.8 SE 10 12 1019.9 - - - - - - - - -
23/11:30am 22.3 SE 12 14 1020.3 - - - - - - - - -
23/11:00am 21.7 SE 12 15 1020.5 - - - - - - - - -
23/10:30am 21.8 SE 13 15 1020.8 - - - - - - - - -
23/10:00am 21.4 SSE 14 16 1021.2 - - - - - - - - -
23/09:30am 21.2 SSE 13 16 1021.2 - - - - - - - - -
23/09:00am 21.1 SSE 14 16 1021.4 - - - - - - - - -
23/08:30am 20.6 SSE 15 17 1021.5 - - - - - - - - -
23/08:00am 20.7 SSE 15 17 1021.5 - - - - - - - - -
23/07:30am 20.6 SSE 15 18 1021.2 - - - - - - - - -
23/07:00am 20.4 SSE 14 16 1020.9 - - - - - - - - -
23/06:30am 20.1 S 15 17 1020.8 - - - - - - - - -
23/06:00am 20.1 S 15 17 1020.7 - - - - - - - - -

Other Formats:

Comma delimited format used in spreadsheet applications
http://www.bom.gov.au/fwo/IDQ60701/IDQ60701.94378.axf

JavaScript Object Notation format (JSON) in row-major order
http://www.bom.gov.au/fwo/IDQ60701/IDQ60701.94378.json